aviador You're here:

PAMK Decoded Metar

ST MICHAEL in AK, USA
Report Time2018-04-24 11:56:00
UTC Time2018-04-24 12:39:25
Flight Rules vfr VFR
Wind070° at 12 kt
W.Decomp.*RWY 02: 10.1 kt HW 6.5 kt RCW
W.Rank070° ranks 5
Current wind is above 070° avg. (9.9)
Visibility9999 m
Phenomena:N/A
Clouds:Overcast 090 Hf
Expected CloudBase > 800 ft AGL from Temp-Dew spread
Ceiling9,000 ft
Temp01°C (ISA -14)
Dew Point-1°C (87% RH)
AAT-5.4°C
QNH990 hPa
Density Alt-722 ft
Elevation92 ft
Report Wrong Elevation
Raw Report
PAMK 241156Z AUTO 07012KT 10SM OVC090 01/M01 A2924 RMK AO2 SLP903
60000 T00111006 10022 21011 58033 FZRANO $=

Extra information for PAMK:More info

Metar Taf Metar & Taf Last 4 Metars F.Rules Stats Wind Profile Meteogram Temp Stats Airport Information Weather charts Add Link Nearby VenuesMetar ALERT Operation Metar Decoded Social comments

AIRNAV info for PAMK